Aviation Digital Data Service (ADDS)

Output produced by METARs form (1436 UTC 10 December 2016)
found at http://aviationweather.gov/adds/metars/
 
KCON 101402Z 1014/1112 30013G20KT P6SM FEW250 
     FM102100 30008KT P6SM SCT050